Time,TemperatureF,DewpointF,PressureIn,WindDirection,WindDirectionDegrees,WindSpeedMPH,WindSpeedGustMPH,Humidity,HourlyPrecipIn,Conditions,Clouds,dailyrainin,SoftwareType,DateUTC
2013-05-09 00:00:00,57.8,52.0,29.84,North,-999,-999.0,0.0,81,0.00,,---,0.00,VWS V14.01,2013-05-09 04:00:00,
2013-05-09 00:01:00,57.8,52.0,29.84,North,-999,-999.0,0.0,81,0.00,,---,0.00,VWS V14.01,2013-05-09 04:01:00,
2013-05-09 00:05:00,57.8,52.0,29.84,North,-999,-999.0,0.0,81,0.00,,---,0.00,VWS V14.01,2013-05-09 04:05:00,
2013-05-09 02:00:00,55.1,50.7,29.83,North,-999,-999.0,0.0,85,0.00,,---,0.00,VWS V14.01,2013-05-09 06:00:00,
2013-05-09 02:06:00,55.1,50.7,29.83,North,-999,-999.0,0.0,85,0.00,,---,0.00,VWS V14.01,2013-05-09 06:06:00,
2013-05-09 03:00:00,53.8,49.7,29.82,North,-999,-999.0,0.0,86,0.00,,---,0.00,VWS V14.01,2013-05-09 07:00:00,
2013-05-09 03:05:00,53.6,49.5,29.83,North,-999,-999.0,0.0,86,0.00,,---,0.00,VWS V14.01,2013-05-09 07:05:00,
2013-05-09 03:10:00,53.6,49.5,29.82,North,-999,-999.0,0.0,86,0.00,,---,0.00,VWS V14.01,2013-05-09 07:10:00,
2013-05-09 03:15:00,53.5,49.4,29.82,North,-999,-999.0,0.0,86,0.00,,---,0.00,VWS V14.01,2013-05-09 07:15:00,
2013-05-09 03:20:00,53.5,49.4,29.82,North,-999,-999.0,0.0,86,0.00,,---,0.00,VWS V14.01,2013-05-09 07:20:00,
2013-05-09 03:25:00,53.3,49.2,29.82,North,-999,-999.0,0.0,86,0.00,,---,0.00,VWS V14.01,2013-05-09 07:25:00,
2013-05-09 03:31:00,53.1,49.0,29.82,North,-999,-999.0,0.0,86,0.00,,---,0.00,VWS V14.01,2013-05-09 07:31:00,
2013-05-09 03:36:00,52.9,48.8,29.82,North,-999,-999.0,0.0,86,0.00,,---,0.00,VWS V14.01,2013-05-09 07:36:00,
2013-05-09 03:42:00,52.9,48.8,29.82,North,-999,-999.0,0.0,86,0.00,,---,0.00,VWS V14.01,2013-05-09 07:42:00,
2013-05-09 03:48:00,52.9,48.8,29.82,North,-999,-999.0,0.0,86,0.00,,---,0.00,VWS V14.01,2013-05-09 07:48:00,
2013-05-09 03:53:00,52.7,48.6,29.82,North,-999,-999.0,0.0,86,0.00,,---,0.00,VWS V14.01,2013-05-09 07:53:00,
2013-05-09 03:58:00,52.6,48.5,29.82,North,-999,-999.0,0.0,86,0.00,,---,0.00,VWS V14.01,2013-05-09 07:58:00,
2013-05-09 04:04:00,52.4,48.3,29.82,North,-999,-999.0,0.0,86,0.00,,---,0.00,VWS V14.01,2013-05-09 08:04:00,
2013-05-09 04:09:00,52.2,48.5,29.82,North,-999,-999.0,0.0,87,0.00,,---,0.00,VWS V14.01,2013-05-09 08:09:00,
2013-05-09 04:14:00,52.2,48.2,29.82,North,-999,-999.0,0.0,86,0.00,,---,0.00,VWS V14.01,2013-05-09 08:14:00,
2013-05-09 04:19:00,52.2,48.2,29.82,North,-999,-999.0,0.0,86,0.00,,---,0.00,VWS V14.01,2013-05-09 08:19:00,
2013-05-09 04:24:00,52.0,48.3,29.82,North,-999,-999.0,0.0,87,0.00,,---,0.00,VWS V14.01,2013-05-09 08:24:00,
2013-05-09 04:29:00,51.8,48.1,29.82,North,-999,-999.0,0.0,87,0.00,,---,0.00,VWS V14.01,2013-05-09 08:29:00,
2013-05-09 04:34:00,51.8,48.1,29.82,North,-999,-999.0,0.0,87,0.00,,---,0.00,VWS V14.01,2013-05-09 08:34:00,
2013-05-09 04:39:00,51.8,48.1,29.82,North,-999,-999.0,0.0,87,0.00,,---,0.00,VWS V14.01,2013-05-09 08:39:00,
2013-05-09 04:44:00,51.7,48.0,29.82,North,-999,-999.0,0.0,87,0.00,,---,0.00,VWS V14.01,2013-05-09 08:44:00,
2013-05-09 04:49:00,51.5,47.8,29.83,North,-999,-999.0,0.0,87,0.00,,---,0.00,VWS V14.01,2013-05-09 08:49:00,
2013-05-09 04:54:00,51.5,47.8,29.83,North,-999,-999.0,0.0,87,0.00,,---,0.00,VWS V14.01,2013-05-09 08:54:00,
2013-05-09 04:59:00,51.5,47.8,29.83,North,-999,-999.0,0.0,87,0.00,,---,0.00,VWS V14.01,2013-05-09 08:59:00,
2013-05-09 05:05:00,51.3,47.9,29.83,North,-999,-999.0,0.0,88,0.00,,---,0.00,VWS V14.01,2013-05-09 09:05:00,
2013-05-09 05:10:00,51.3,47.6,29.83,North,-999,-999.0,0.0,87,0.00,,---,0.00,VWS V14.01,2013-05-09 09:10:00,
2013-05-09 05:15:00,51.3,47.9,29.83,North,-999,-999.0,0.0,88,0.00,,---,0.00,VWS V14.01,2013-05-09 09:15:00,
2013-05-09 05:20:00,51.1,47.7,29.83,North,-999,-999.0,0.0,88,0.00,,---,0.00,VWS V14.01,2013-05-09 09:20:00,
2013-05-09 05:25:00,51.1,47.7,29.83,North,-999,-999.0,0.0,88,0.00,,---,0.00,VWS V14.01,2013-05-09 09:25:00,
2013-05-09 05:30:00,51.1,47.7,29.83,North,-999,-999.0,0.0,88,0.00,,---,0.00,VWS V14.01,2013-05-09 09:30:00,
2013-05-09 05:35:00,50.9,47.5,29.83,North,-999,-999.0,0.0,88,0.00,,---,0.00,VWS V14.01,2013-05-09 09:35:00,
2013-05-09 05:40:00,50.8,47.4,29.84,North,-999,-999.0,0.0,88,0.00,,---,0.00,VWS V14.01,2013-05-09 09:40:00,
2013-05-09 05:45:00,50.8,47.4,29.84,North,-999,-999.0,0.0,88,0.00,,---,0.00,VWS V14.01,2013-05-09 09:45:00,
2013-05-09 05:50:00,50.8,47.1,29.84,North,-999,-999.0,0.0,87,0.00,,---,0.00,VWS V14.01,2013-05-09 09:50:00,
2013-05-09 05:55:00,50.6,46.9,29.84,North,-999,-999.0,0.0,87,0.00,,---,0.00,VWS V14.01,2013-05-09 09:55:00,
2013-05-09 06:00:00,50.6,46.9,29.85,North,-999,-999.0,0.0,87,0.00,,---,0.00,VWS V14.01,2013-05-09 10:00:00,
2013-05-09 06:06:00,50.4,46.7,29.85,North,-999,-999.0,0.0,87,0.00,,---,0.00,VWS V14.01,2013-05-09 10:06:00,
2013-05-09 06:11:00,50.4,46.7,29.85,North,-999,-999.0,0.0,87,0.00,,---,0.00,VWS V14.01,2013-05-09 10:11:00,
2013-05-09 06:16:00,50.4,46.7,29.85,North,-999,-999.0,0.0,87,0.00,,---,0.00,VWS V14.01,2013-05-09 10:16:00,
2013-05-09 06:21:00,50.2,46.5,29.85,North,-999,-999.0,0.0,87,0.00,,---,0.00,VWS V14.01,2013-05-09 10:21:00,
2013-05-09 06:26:00,50.2,46.5,29.86,North,-999,-999.0,0.0,87,0.00,,---,0.00,VWS V14.01,2013-05-09 10:26:00,
2013-05-09 06:31:00,50.2,46.5,29.86,North,-999,-999.0,0.0,87,0.00,,---,0.00,VWS V14.01,2013-05-09 10:31:00,
2013-05-09 06:36:00,50.0,46.6,29.86,North,-999,-999.0,0.0,88,0.00,,---,0.00,VWS V14.01,2013-05-09 10:36:00,
2013-05-09 06:41:00,50.0,46.6,29.87,North,-999,-999.0,0.0,88,0.00,,---,0.00,VWS V14.01,2013-05-09 10:41:00,
2013-05-09 06:46:00,50.0,46.6,29.87,North,-999,-999.0,0.0,88,0.00,,---,0.00,VWS V14.01,2013-05-09 10:46:00,
2013-05-09 06:51:00,50.2,46.8,29.87,North,-999,-999.0,0.0,88,0.00,,---,0.00,VWS V14.01,2013-05-09 10:51:00,
2013-05-09 06:56:00,50.2,46.8,29.87,North,-999,-999.0,0.0,88,0.00,,---,0.00,VWS V14.01,2013-05-09 10:56:00,
2013-05-09 07:02:00,50.2,46.8,29.87,North,-999,-999.0,0.0,88,0.00,,---,0.00,VWS V14.01,2013-05-09 11:02:00,
2013-05-09 07:07:00,50.4,47.0,29.88,North,-999,-999.0,0.0,88,0.00,,---,0.00,VWS V14.01,2013-05-09 11:07:00,
2013-05-09 07:12:00,50.4,47.0,29.88,North,-999,-999.0,0.0,88,0.00,,---,0.00,VWS V14.01,2013-05-09 11:12:00,
2013-05-09 07:17:00,50.6,47.2,29.88,North,-999,-999.0,0.0,88,0.00,,---,0.00,VWS V14.01,2013-05-09 11:17:00,
2013-05-09 07:22:00,50.8,47.7,29.88,North,-999,-999.0,0.0,89,0.00,,---,0.00,VWS V14.01,2013-05-09 11:22:00,
2013-05-09 07:27:00,51.1,48.0,29.88,North,-999,-999.0,0.0,89,0.00,,---,0.00,VWS V14.01,2013-05-09 11:27:00,
2013-05-09 07:32:00,51.3,48.2,29.88,North,-999,-999.0,0.0,89,0.00,,---,0.00,VWS V14.01,2013-05-09 11:32:00,
2013-05-09 07:37:00,51.5,48.4,29.89,North,-999,-999.0,0.0,89,0.00,,---,0.00,VWS V14.01,2013-05-09 11:37:00,
2013-05-09 07:42:00,51.8,48.7,29.89,North,-999,-999.0,0.0,89,0.00,,---,0.00,VWS V14.01,2013-05-09 11:42:00,
2013-05-09 07:47:00,52.2,49.1,29.89,North,-999,-999.0,0.0,89,0.00,,---,0.00,VWS V14.01,2013-05-09 11:47:00,
2013-05-09 07:52:00,52.6,49.5,29.88,North,-999,-999.0,0.0,89,0.00,,---,0.00,VWS V14.01,2013-05-09 11:52:00,
2013-05-09 07:57:00,52.9,49.8,29.88,North,-999,-999.0,0.0,89,0.00,,---,0.00,VWS V14.01,2013-05-09 11:57:00,
2013-05-09 08:03:00,53.5,50.3,29.89,North,-999,-999.0,0.0,89,0.00,,---,0.00,VWS V14.01,2013-05-09 12:03:00,
2013-05-09 08:08:00,54.0,51.1,29.89,North,-999,-999.0,0.0,90,0.00,,---,0.00,VWS V14.01,2013-05-09 12:08:00,
2013-05-09 08:13:00,54.5,51.6,29.89,North,-999,-999.0,0.0,90,0.00,,---,0.00,VWS V14.01,2013-05-09 12:13:00,
2013-05-09 08:18:00,55.1,52.2,29.89,North,-999,-999.0,0.0,90,0.00,,---,0.00,VWS V14.01,2013-05-09 12:18:00,
2013-05-09 08:23:00,55.8,52.9,29.89,North,-999,-999.0,0.0,90,0.00,,---,0.00,VWS V14.01,2013-05-09 12:23:00,
2013-05-09 08:28:00,56.2,53.3,29.89,North,-999,-999.0,0.0,90,0.00,,---,0.00,VWS V14.01,2013-05-09 12:28:00,
2013-05-09 08:33:00,56.7,53.8,29.90,North,-999,-999.0,0.0,90,0.00,,---,0.00,VWS V14.01,2013-05-09 12:33:00,
2013-05-09 08:38:00,57.6,54.4,29.90,North,-999,-999.0,0.0,89,0.00,,---,0.00,VWS V14.01,2013-05-09 12:38:00,
2013-05-09 08:43:00,58.5,55.6,29.90,North,-999,-999.0,0.0,90,0.00,,---,0.00,VWS V14.01,2013-05-09 12:43:00,
2013-05-09 08:48:00,59.4,56.5,29.90,North,-999,-999.0,0.0,90,0.00,,---,0.00,VWS V14.01,2013-05-09 12:48:00,
2013-05-09 08:53:00,59.9,56.7,29.90,North,-999,-999.0,0.0,89,0.00,,---,0.00,VWS V14.01,2013-05-09 12:53:00,
2013-05-09 08:58:00,60.7,57.4,29.90,North,-999,-999.0,0.0,89,0.00,,---,0.00,VWS V14.01,2013-05-09 12:58:00,
2013-05-09 09:04:00,61.4,57.8,29.90,North,-999,-999.0,0.0,88,0.00,,---,0.00,VWS V14.01,2013-05-09 13:04:00,
2013-05-09 09:09:00,62.1,58.2,29.90,North,-999,-999.0,0.0,87,0.00,,---,0.00,VWS V14.01,2013-05-09 13:09:00,
2013-05-09 09:14:00,62.6,58.4,29.90,North,-999,-999.0,0.0,86,0.00,,---,0.00,VWS V14.01,2013-05-09 13:14:00,
2013-05-09 09:19:00,63.0,58.4,29.90,North,-999,-999.0,0.0,85,0.00,,---,0.00,VWS V14.01,2013-05-09 13:19:00,
2013-05-09 09:24:00,63.7,59.1,29.90,North,-999,-999.0,0.0,85,0.00,,---,0.00,VWS V14.01,2013-05-09 13:24:00,
2013-05-09 09:29:00,64.4,59.1,29.90,North,-999,-999.0,0.0,83,0.00,,---,0.00,VWS V14.01,2013-05-09 13:29:00,
2013-05-09 09:34:00,65.2,60.2,29.90,North,-999,-999.0,0.0,84,0.00,,---,0.00,VWS V14.01,2013-05-09 13:34:00,
2013-05-09 09:39:00,65.7,60.1,29.90,North,-999,-999.0,0.0,82,0.00,,---,0.00,VWS V14.01,2013-05-09 13:39:00,
2013-05-09 09:44:00,66.6,60.2,29.90,North,-999,-999.0,0.0,80,0.00,,---,0.00,VWS V14.01,2013-05-09 13:44:00,
2013-05-09 09:49:00,67.1,60.4,29.90,North,-999,-999.0,0.0,79,0.00,,---,0.00,VWS V14.01,2013-05-09 13:49:00,
2013-05-09 09:54:00,67.7,60.2,29.90,North,-999,-999.0,0.0,77,0.00,,---,0.00,VWS V14.01,2013-05-09 13:54:00,
2013-05-09 09:59:00,68.0,59.4,29.90,North,-999,-999.0,0.0,74,0.00,,---,0.00,VWS V14.01,2013-05-09 13:59:00,
2013-05-09 10:05:00,68.8,59.8,29.90,North,-999,-999.0,0.0,73,0.00,,---,0.00,VWS V14.01,2013-05-09 14:05:00,
2013-05-09 10:10:00,69.3,60.3,29.90,North,-999,-999.0,0.0,73,0.00,,---,0.00,VWS V14.01,2013-05-09 14:10:00,
2013-05-09 10:15:00,69.7,59.9,29.90,North,-999,-999.0,0.0,71,0.00,,---,0.00,VWS V14.01,2013-05-09 14:15:00,
2013-05-09 10:20:00,70.4,60.6,29.90,North,-999,-999.0,0.0,71,0.00,,---,0.00,VWS V14.01,2013-05-09 14:20:00,
2013-05-09 10:25:00,70.9,60.2,29.90,North,-999,-999.0,0.0,69,0.00,,---,0.00,VWS V14.01,2013-05-09 14:25:00,
2013-05-09 10:30:00,71.5,59.6,29.90,North,-999,-999.0,0.0,66,0.00,,---,0.00,VWS V14.01,2013-05-09 14:30:00,
2013-05-09 10:35:00,71.8,59.8,29.90,North,-999,-999.0,0.0,66,0.00,,---,0.00,VWS V14.01,2013-05-09 14:35:00,
2013-05-09 10:40:00,72.4,59.1,29.90,North,-999,-999.0,0.0,63,0.00,,---,0.00,VWS V14.01,2013-05-09 14:40:00,
2013-05-09 10:45:00,72.7,58.9,29.90,North,-999,-999.0,0.0,62,0.00,,---,0.00,VWS V14.01,2013-05-09 14:45:00,
2013-05-09 10:50:00,73.4,59.2,29.90,North,-999,-999.0,0.0,61,0.00,,---,0.00,VWS V14.01,2013-05-09 14:50:00,
2013-05-09 10:55:00,74.0,60.2,29.90,North,-999,-999.0,0.0,62,0.00,,---,0.00,VWS V14.01,2013-05-09 14:55:00,
2013-05-09 11:01:00,74.5,59.7,29.90,North,-999,-999.0,0.0,60,0.00,,---,0.00,VWS V14.01,2013-05-09 15:01:00,
2013-05-09 11:06:00,75.6,60.8,29.90,North,-999,-999.0,0.0,60,0.00,,---,0.00,VWS V14.01,2013-05-09 15:06:00,
2013-05-09 11:11:00,78.3,60.8,29.90,North,-999,-999.0,0.0,55,0.00,,---,0.00,VWS V14.01,2013-05-09 15:11:00,
2013-05-09 11:16:00,81.2,63.5,29.91,North,-999,-999.0,0.0,55,0.00,,---,0.00,VWS V14.01,2013-05-09 15:16:00,
2013-05-09 11:21:00,83.5,64.0,29.90,North,-999,-999.0,0.0,52,0.00,,---,0.00,VWS V14.01,2013-05-09 15:21:00,
2013-05-09 11:22:00,83.9,63.8,29.90,North,-999,-999.0,0.0,51,0.00,,---,0.00,VWS V14.01,2013-05-09 15:22:00,
2013-05-09 11:28:00,83.9,63.8,29.90,North,-999,-999.0,0.0,51,0.00,,---,0.00,VWS V14.01,2013-05-09 15:28:00,
2013-05-09 12:00:00,87.8,61.9,29.90,North,-999,-999.0,0.0,42,0.00,,---,0.48,VWS V14.01,2013-05-09 16:00:00,
2013-05-09 12:06:00,87.8,61.9,29.90,North,-999,-999.0,0.0,42,0.00,,---,0.00,VWS V14.01,2013-05-09 16:06:00,
2013-05-09 13:00:00,91.1,58.8,29.90,North,-999,-999.0,0.0,34,0.00,,---,0.00,VWS V14.01,2013-05-09 17:00:00,
2013-05-09 13:06:00,91.1,58.8,29.90,North,-999,-999.0,0.0,34,0.00,,---,0.00,VWS V14.01,2013-05-09 17:06:00,
2013-05-09 16:00:00,92.9,58.7,29.85,North,-999,-999.0,0.0,32,0.00,,---,0.00,VWS V14.01,2013-05-09 20:00:00,
2013-05-09 16:05:00,90.2,57.2,29.85,North,-999,-999.0,0.0,33,0.00,,---,0.00,VWS V14.01,2013-05-09 20:05:00,
2013-05-09 16:10:00,90.5,57.5,29.85,North,-999,-999.0,0.0,33,0.00,,---,0.00,VWS V14.01,2013-05-09 20:10:00,
2013-05-09 16:16:00,90.2,57.2,29.84,North,-999,-999.0,0.0,33,0.00,,---,0.00,VWS V14.01,2013-05-09 20:16:00,
2013-05-09 16:21:00,90.4,58.2,29.84,North,-999,-999.0,0.0,34,0.00,,---,0.00,VWS V14.01,2013-05-09 20:21:00,
2013-05-09 16:26:00,90.0,57.1,29.84,North,-999,-999.0,0.0,33,0.00,,---,0.00,VWS V14.01,2013-05-09 20:26:00,
2013-05-09 16:31:00,86.8,54.3,29.84,North,-999,-999.0,0.0,33,0.00,,---,0.00,VWS V14.01,2013-05-09 20:31:00,
2013-05-09 16:36:00,86.0,55.2,29.84,North,-999,-999.0,0.0,35,0.00,,---,0.00,VWS V14.01,2013-05-09 20:36:00,
2013-05-09 16:41:00,87.3,55.5,29.84,North,-999,-999.0,0.0,34,0.00,,---,0.00,VWS V14.01,2013-05-09 20:41:00,
2013-05-09 16:46:00,88.9,56.1,29.84,North,-999,-999.0,0.0,33,0.00,,---,0.00,VWS V14.01,2013-05-09 20:46:00,
2013-05-09 16:51:00,89.6,55.9,29.84,North,-999,-999.0,0.0,32,0.00,,---,0.00,VWS V14.01,2013-05-09 20:51:00,
2013-05-09 16:56:00,88.0,55.3,29.84,North,-999,-999.0,0.0,33,0.00,,---,0.00,VWS V14.01,2013-05-09 20:56:00,
2013-05-09 17:02:00,86.0,53.6,29.84,North,-999,-999.0,0.0,33,0.00,,---,0.00,VWS V14.01,2013-05-09 21:02:00,
2013-05-09 17:07:00,85.0,54.3,29.84,North,-999,-999.0,0.0,35,0.00,,---,0.00,VWS V14.01,2013-05-09 21:07:00,
2013-05-09 17:12:00,85.0,55.1,29.84,North,-999,-999.0,0.0,36,0.00,,---,0.00,VWS V14.01,2013-05-09 21:12:00,
2013-05-09 17:17:00,85.3,55.3,29.84,North,-999,-999.0,0.0,36,0.00,,---,0.00,VWS V14.01,2013-05-09 21:17:00,
2013-05-09 17:22:00,86.2,55.4,29.84,North,-999,-999.0,0.0,35,0.00,,---,0.00,VWS V14.01,2013-05-09 21:22:00,
2013-05-09 17:27:00,87.8,56.0,29.84,North,-999,-999.0,0.0,34,0.00,,---,0.00,VWS V14.01,2013-05-09 21:27:00,
2013-05-09 17:32:00,88.6,58.2,29.83,North,-999,-999.0,0.0,36,0.00,,---,0.00,VWS V14.01,2013-05-09 21:32:00,
2013-05-09 17:37:00,90.4,57.4,29.84,North,-999,-999.0,0.0,33,0.00,,---,0.00,VWS V14.01,2013-05-09 21:37:00,
2013-05-09 17:42:00,90.5,58.3,29.84,North,-999,-999.0,0.0,34,0.00,,---,0.00,VWS V14.01,2013-05-09 21:42:00,
2013-05-09 17:47:00,89.5,57.5,29.84,North,-999,-999.0,0.0,34,0.00,,---,0.00,VWS V14.01,2013-05-09 21:47:00,
2013-05-09 17:52:00,87.1,54.5,29.84,North,-999,-999.0,0.0,33,0.00,,---,0.00,VWS V14.01,2013-05-09 21:52:00,
2013-05-09 17:57:00,85.3,54.6,29.84,North,-999,-999.0,0.0,35,0.00,,---,0.00,VWS V14.01,2013-05-09 21:57:00,
2013-05-09 18:03:00,84.6,55.5,29.84,North,-999,-999.0,0.0,37,0.00,,---,0.00,VWS V14.01,2013-05-09 22:03:00,
2013-05-09 18:08:00,86.0,57.5,29.84,North,-999,-999.0,0.0,38,0.00,,---,0.00,VWS V14.01,2013-05-09 22:08:00,
2013-05-09 18:13:00,86.9,57.5,29.85,North,-999,-999.0,0.0,37,0.00,,---,0.00,VWS V14.01,2013-05-09 22:13:00,
2013-05-09 18:18:00,86.0,56.7,29.85,North,-999,-999.0,0.0,37,0.00,,---,0.00,VWS V14.01,2013-05-09 22:18:00,
2013-05-09 18:23:00,85.3,56.8,29.85,North,-999,-999.0,0.0,38,0.00,,---,0.00,VWS V14.01,2013-05-09 22:23:00,
2013-05-09 18:28:00,84.2,58.0,29.86,North,-999,-999.0,0.0,41,0.00,,---,0.00,VWS V14.01,2013-05-09 22:28:00,
2013-05-09 18:33:00,81.7,57.7,29.86,North,-999,-999.0,0.0,44,0.00,,---,0.00,VWS V14.01,2013-05-09 22:33:00,
2013-05-09 18:38:00,80.3,58.2,29.86,North,-999,-999.0,0.0,47,0.00,,---,0.00,VWS V14.01,2013-05-09 22:38:00,
2013-05-09 18:43:00,79.4,58.6,29.86,North,-999,-999.0,0.0,49,0.00,,---,0.00,VWS V14.01,2013-05-09 22:43:00,
2013-05-09 18:48:00,79.9,59.6,29.86,North,-999,-999.0,0.0,50,0.00,,---,0.00,VWS V14.01,2013-05-09 22:48:00,
2013-05-09 18:53:00,81.0,60.1,29.86,North,-999,-999.0,0.0,49,0.00,,---,0.00,VWS V14.01,2013-05-09 22:53:00,
2013-05-09 18:58:00,81.5,59.9,29.85,North,-999,-999.0,0.0,48,0.00,,---,0.00,VWS V14.01,2013-05-09 22:58:00,
2013-05-09 19:03:00,81.7,60.1,29.85,North,-999,-999.0,0.0,48,0.00,,---,0.00,VWS V14.01,2013-05-09 23:03:00,
2013-05-09 19:09:00,82.1,60.5,29.85,North,-999,-999.0,0.0,48,0.00,,---,0.00,VWS V14.01,2013-05-09 23:09:00,
2013-05-09 19:14:00,81.9,60.3,29.85,North,-999,-999.0,0.0,48,0.00,,---,0.00,VWS V14.01,2013-05-09 23:14:00,
2013-05-09 19:19:00,81.7,60.1,29.85,North,-999,-999.0,0.0,48,0.00,,---,0.00,VWS V14.01,2013-05-09 23:19:00,
2013-05-09 19:24:00,81.0,60.1,29.85,North,-999,-999.0,0.0,49,0.00,,---,0.00,VWS V14.01,2013-05-09 23:24:00,
2013-05-09 19:29:00,80.3,59.4,29.85,North,-999,-999.0,0.0,49,0.00,,---,0.00,VWS V14.01,2013-05-09 23:29:00,
2013-05-09 19:34:00,79.2,59.0,29.85,North,-999,-999.0,0.0,50,0.00,,---,0.00,VWS V14.01,2013-05-09 23:34:00,
2013-05-09 19:39:00,78.7,59.1,29.85,North,-999,-999.0,0.0,51,0.00,,---,0.00,VWS V14.01,2013-05-09 23:39:00,
2013-05-09 19:44:00,77.9,58.3,29.85,North,-999,-999.0,0.0,51,0.00,,---,0.00,VWS V14.01,2013-05-09 23:44:00,
2013-05-09 19:49:00,77.4,58.4,29.85,North,-999,-999.0,0.0,52,0.00,,---,0.00,VWS V14.01,2013-05-09 23:49:00,
2013-05-09 19:54:00,76.7,58.3,29.85,North,-999,-999.0,0.0,53,0.00,,---,0.00,VWS V14.01,2013-05-09 23:54:00,
2013-05-09 19:59:00,76.0,58.2,29.85,North,-999,-999.0,0.0,54,0.00,,---,0.00,VWS V14.01,2013-05-09 23:59:00,
2013-05-09 20:05:00,75.4,58.1,29.86,North,-999,-999.0,0.0,55,0.00,,---,0.00,VWS V14.01,2013-05-10 00:05:00,
2013-05-09 20:10:00,74.7,57.5,29.86,North,-999,-999.0,0.0,55,0.00,,---,0.00,VWS V14.01,2013-05-10 00:10:00,
2013-05-09 20:15:00,74.2,58.5,29.86,North,-999,-999.0,0.0,58,0.00,,---,0.00,VWS V14.01,2013-05-10 00:15:00,
2013-05-09 20:20:00,73.1,57.9,29.86,North,-999,-999.0,0.0,59,0.00,,---,0.00,VWS V14.01,2013-05-10 00:20:00,
2013-05-09 20:25:00,72.2,57.6,29.86,North,-999,-999.0,0.0,60,0.00,,---,0.00,VWS V14.01,2013-05-10 00:25:00,
2013-05-09 20:30:00,71.6,57.5,29.87,North,-999,-999.0,0.0,61,0.00,,---,0.00,VWS V14.01,2013-05-10 00:30:00,
2013-05-09 20:35:00,71.1,57.4,29.87,North,-999,-999.0,0.0,62,0.00,,---,0.00,VWS V14.01,2013-05-10 00:35:00,
2013-05-09 20:40:00,70.6,57.0,29.87,North,-999,-999.0,0.0,62,0.00,,---,0.00,VWS V14.01,2013-05-10 00:40:00,
2013-05-09 20:45:00,70.0,56.8,29.87,North,-999,-999.0,0.0,63,0.00,,---,0.00,VWS V14.01,2013-05-10 00:45:00,
2013-05-09 20:50:00,69.7,57.0,29.87,North,-999,-999.0,0.0,64,0.00,,---,0.00,VWS V14.01,2013-05-10 00:50:00,
2013-05-09 20:55:00,69.1,56.8,29.87,North,-999,-999.0,0.0,65,0.00,,---,0.00,VWS V14.01,2013-05-10 00:55:00,
2013-05-09 21:01:00,68.8,56.6,29.87,North,-999,-999.0,0.0,65,0.00,,---,0.00,VWS V14.01,2013-05-10 01:01:00,
2013-05-09 21:06:00,68.2,56.8,29.87,North,-999,-999.0,0.0,67,0.00,,---,0.00,VWS V14.01,2013-05-10 01:06:00,
2013-05-09 21:11:00,67.9,57.0,29.87,North,-999,-999.0,0.0,68,0.00,,---,0.00,VWS V14.01,2013-05-10 01:11:00,
2013-05-09 21:16:00,67.3,56.4,29.87,North,-999,-999.0,0.0,68,0.00,,---,0.00,VWS V14.01,2013-05-10 01:16:00,
2013-05-09 21:21:00,67.1,56.6,29.87,North,-999,-999.0,0.0,69,0.00,,---,0.00,VWS V14.01,2013-05-10 01:21:00,
2013-05-09 21:26:00,66.8,56.7,29.87,North,-999,-999.0,0.0,70,0.00,,---,0.00,VWS V14.01,2013-05-10 01:26:00,
2013-05-09 21:31:00,66.4,56.3,29.87,North,-999,-999.0,0.0,70,0.00,,---,0.00,VWS V14.01,2013-05-10 01:31:00,
2013-05-09 21:36:00,66.1,56.0,29.88,North,-999,-999.0,0.0,70,0.00,,---,0.00,VWS V14.01,2013-05-10 01:36:00,
2013-05-09 21:41:00,65.9,56.2,29.88,North,-999,-999.0,0.0,71,0.00,,---,0.00,VWS V14.01,2013-05-10 01:41:00,
2013-05-09 21:46:00,65.7,56.4,29.88,North,-999,-999.0,0.0,72,0.00,,---,0.00,VWS V14.01,2013-05-10 01:46:00,
2013-05-09 21:51:00,65.3,56.4,29.88,North,-999,-999.0,0.0,73,0.00,,---,0.00,VWS V14.01,2013-05-10 01:51:00,
2013-05-09 21:56:00,64.8,56.0,29.88,North,-999,-999.0,0.0,73,0.00,,---,0.00,VWS V14.01,2013-05-10 01:56:00,
2013-05-09 22:02:00,64.8,56.3,29.89,North,-999,-999.0,0.0,74,0.00,,---,0.00,VWS V14.01,2013-05-10 02:02:00,
2013-05-09 22:07:00,64.4,55.9,29.89,North,-999,-999.0,0.0,74,0.00,,---,0.00,VWS V14.01,2013-05-10 02:07:00,
2013-05-09 22:12:00,64.3,55.8,29.89,North,-999,-999.0,0.0,74,0.00,,---,0.00,VWS V14.01,2013-05-10 02:12:00,
2013-05-09 22:17:00,64.1,56.4,29.89,North,-999,-999.0,0.0,76,0.00,,---,0.00,VWS V14.01,2013-05-10 02:17:00,
2013-05-09 22:22:00,63.7,56.0,29.89,North,-999,-999.0,0.0,76,0.00,,---,0.00,VWS V14.01,2013-05-10 02:22:00,
2013-05-09 22:27:00,63.4,55.7,29.89,North,-999,-999.0,0.0,76,0.00,,---,0.00,VWS V14.01,2013-05-10 02:27:00,
2013-05-09 22:32:00,63.2,55.5,29.89,North,-999,-999.0,0.0,76,0.00,,---,0.00,VWS V14.01,2013-05-10 02:32:00,
2013-05-09 22:37:00,63.0,55.3,29.89,North,-999,-999.0,0.0,76,0.00,,---,0.00,VWS V14.01,2013-05-10 02:37:00,
2013-05-09 22:42:00,62.8,55.1,29.89,North,-999,-999.0,0.0,76,0.00,,---,0.00,VWS V14.01,2013-05-10 02:42:00,
2013-05-09 22:47:00,62.6,55.3,29.89,North,-999,-999.0,0.0,77,0.00,,---,0.00,VWS V14.01,2013-05-10 02:47:00,
2013-05-09 22:52:00,62.5,55.2,29.89,North,-999,-999.0,0.0,77,0.00,,---,0.00,VWS V14.01,2013-05-10 02:52:00,
2013-05-09 22:57:00,62.3,55.4,29.89,North,-999,-999.0,0.0,78,0.00,,---,0.00,VWS V14.01,2013-05-10 02:57:00,
2013-05-09 23:03:00,62.3,55.4,29.89,North,-999,-999.0,0.0,78,0.00,,---,0.00,VWS V14.01,2013-05-10 03:03:00,
2013-05-09 23:08:00,62.1,55.5,29.89,North,-999,-999.0,0.0,79,0.00,,---,0.00,VWS V14.01,2013-05-10 03:08:00,
2013-05-09 23:13:00,61.7,55.1,29.88,North,-999,-999.0,0.0,79,0.00,,---,0.00,VWS V14.01,2013-05-10 03:13:00,
2013-05-09 23:18:00,61.6,55.0,29.89,North,-999,-999.0,0.0,79,0.00,,---,0.00,VWS V14.01,2013-05-10 03:18:00,
2013-05-09 23:23:00,61.6,55.0,29.88,North,-999,-999.0,0.0,79,0.00,,---,0.00,VWS V14.01,2013-05-10 03:23:00,
2013-05-09 23:28:00,61.4,54.8,29.88,North,-999,-999.0,0.0,79,0.00,,---,0.00,VWS V14.01,2013-05-10 03:28:00,
2013-05-09 23:33:00,61.2,54.6,29.88,North,-999,-999.0,0.0,79,0.00,,---,0.00,VWS V14.01,2013-05-10 03:33:00,
2013-05-09 23:38:00,61.0,54.5,29.88,North,-999,-999.0,0.0,79,0.00,,---,0.00,VWS V14.01,2013-05-10 03:38:00,
2013-05-09 23:43:00,61.0,54.8,29.88,North,-999,-999.0,0.0,80,0.00,,---,0.00,VWS V14.01,2013-05-10 03:43:00,
2013-05-09 23:48:00,60.8,54.6,29.88,North,-999,-999.0,0.0,80,0.00,,---,0.00,VWS V14.01,2013-05-10 03:48:00,
2013-05-09 23:53:00,60.8,54.6,29.88,North,-999,-999.0,0.0,80,0.00,,---,0.00,VWS V14.01,2013-05-10 03:53:00,
2013-05-09 23:58:00,60.7,54.5,29.88,North,-999,-999.0,0.0,80,0.00,,---,0.00,VWS V14.01,2013-05-10 03:58:00,